createdAt,value
2019-02-18T00:00:03.897Z,7.08
2019-02-18T00:02:37.505Z,7.03
2019-02-18T00:05:08.884Z,7.01
2019-02-18T00:07:40.134Z,6.99
2019-02-18T00:10:11.330Z,6.96
2019-02-18T00:12:42.542Z,6.93
2019-02-18T00:15:13.743Z,6.89
2019-02-18T00:17:44.894Z,6.85
2019-02-18T00:20:16.134Z,6.82
2019-02-18T00:22:47.302Z,6.77
2019-02-18T00:25:18.457Z,6.74
2019-02-18T00:27:49.728Z,6.70
2019-02-18T00:30:20.952Z,6.68
2019-02-18T00:32:52.209Z,6.67
2019-02-18T00:35:23.720Z,6.65
2019-02-18T00:37:54.995Z,6.64
2019-02-18T00:40:26.318Z,6.62
2019-02-18T00:42:57.493Z,6.62
2019-02-18T00:45:28.689Z,6.62
2019-02-18T00:47:59.954Z,6.60
2019-02-18T00:50:31.161Z,6.57
2019-02-18T00:53:04.022Z,6.56
2019-02-18T00:55:35.569Z,6.52
2019-02-18T00:58:06.686Z,6.52
2019-02-18T01:00:37.920Z,6.50
2019-02-18T01:03:09.262Z,6.49
2019-02-18T01:05:40.587Z,6.46
2019-02-18T01:08:11.776Z,6.43
2019-02-18T01:10:43.041Z,6.41
2019-02-18T01:13:14.311Z,6.39
2019-02-18T01:15:45.446Z,6.36
2019-02-18T01:18:16.682Z,6.35
2019-02-18T01:20:47.802Z,6.34
2019-02-18T01:23:19.274Z,6.31
2019-02-18T01:25:50.688Z,6.28
2019-02-18T01:28:21.900Z,6.27
2019-02-18T01:30:53.460Z,6.24
2019-02-18T01:33:24.683Z,6.23
2019-02-18T01:35:56.214Z,6.22
2019-02-18T01:38:27.413Z,6.18
2019-02-18T01:40:58.701Z,6.17
2019-02-18T01:43:29.952Z,6.14
2019-02-18T01:46:01.313Z,6.10
2019-02-18T01:48:32.501Z,6.07
2019-02-18T01:51:04.901Z,6.05
2019-02-18T01:53:36.221Z,6.01
2019-02-18T01:56:07.401Z,5.99
2019-02-18T01:58:38.647Z,5.97
2019-02-18T02:01:09.793Z,5.95
2019-02-18T02:03:41.302Z,5.94
2019-02-18T02:06:12.544Z,5.93
2019-02-18T02:08:43.801Z,5.91
2019-02-18T02:11:15.162Z,5.89
2019-02-18T02:13:46.355Z,5.88
2019-02-18T02:16:17.506Z,5.86
2019-02-18T02:18:48.723Z,5.84
2019-02-18T02:21:19.955Z,5.82
2019-02-18T02:23:51.220Z,5.78
2019-02-18T02:26:22.418Z,5.76
2019-02-18T02:28:53.667Z,5.73
2019-02-18T02:31:25.876Z,5.70
2019-02-18T02:33:57.217Z,5.69
2019-02-18T02:36:28.453Z,5.67
2019-02-18T02:38:59.719Z,5.64
2019-02-18T02:41:31.550Z,5.63
2019-02-18T02:44:03.011Z,5.61
2019-02-18T02:46:34.256Z,5.59
2019-02-18T02:49:05.503Z,5.55
2019-02-18T02:51:36.662Z,5.54
2019-02-18T02:54:09.011Z,5.52
2019-02-18T02:56:40.508Z,5.50
2019-02-18T02:59:11.741Z,5.47
2019-02-18T03:01:43.011Z,5.44
2019-02-18T03:04:14.241Z,5.42
2019-02-18T03:06:45.501Z,5.38
2019-02-18T03:09:16.846Z,5.37
2019-02-18T03:11:48.298Z,5.36
2019-02-18T03:14:19.485Z,5.34
2019-02-18T03:16:50.723Z,5.34
2019-02-18T03:19:21.928Z,5.32
2019-02-18T03:21:53.165Z,5.30
2019-02-18T03:24:24.403Z,5.27
2019-02-18T03:26:55.570Z,5.24
2019-02-18T03:30:13.814Z,5.22
2019-02-18T03:32:50.024Z,5.20
2019-02-18T03:35:21.157Z,5.15
2019-02-18T03:37:52.365Z,5.13
2019-02-18T03:40:23.873Z,5.13
2019-02-18T03:42:55.163Z,5.11
2019-02-18T03:45:26.379Z,5.07
2019-02-18T03:47:58.641Z,5.05
2019-02-18T03:50:29.831Z,5.05
2019-02-18T03:53:01.042Z,5.03
2019-02-18T03:55:32.311Z,5.01
2019-02-18T03:58:03.494Z,4.98
2019-02-18T04:00:34.708Z,4.95
2019-02-18T04:03:05.899Z,4.92
2019-02-18T04:05:37.077Z,4.91
2019-02-18T04:08:08.253Z,4.89
2019-02-18T04:10:39.774Z,4.87
2019-02-18T04:13:11.070Z,4.85
2019-02-18T04:15:42.523Z,4.84
2019-02-18T04:18:26.384Z,4.81
2019-02-18T04:20:57.601Z,4.79
2019-02-18T04:23:28.771Z,4.75
2019-02-18T04:26:01.117Z,4.65
2019-02-18T04:28:32.434Z,4.71
2019-02-18T04:31:03.659Z,4.69
2019-02-18T04:33:35.026Z,4.67
2019-02-18T04:36:06.359Z,4.66
2019-02-18T04:38:37.528Z,4.66
2019-02-18T04:41:08.738Z,4.65
2019-02-18T04:43:42.215Z,4.64
2019-02-18T04:46:13.069Z,4.61
2019-02-18T04:48:44.242Z,4.58
2019-02-18T04:51:15.445Z,4.56
2019-02-18T04:53:46.733Z,4.53
2019-02-18T04:56:17.868Z,4.50
2019-02-18T04:58:49.098Z,4.49
2019-02-18T05:01:20.316Z,4.47
2019-02-18T05:03:51.545Z,4.47
2019-02-18T05:06:25.380Z,4.45
2019-02-18T05:09:05.087Z,4.44
2019-02-18T05:11:28.907Z,4.43
2019-02-18T05:14:00.212Z,4.39
2019-02-18T05:16:31.566Z,4.39
2019-02-18T05:19:02.768Z,4.39
2019-02-18T05:21:33.963Z,4.37
2019-02-18T05:24:05.182Z,4.34
2019-02-18T05:26:36.574Z,4.34
2019-02-18T05:29:08.009Z,4.33
2019-02-18T05:31:39.116Z,4.32
2019-02-18T05:34:10.372Z,4.32
2019-02-18T05:36:41.554Z,4.31
2019-02-18T05:39:18.081Z,4.30
2019-02-18T05:41:45.715Z,4.28
2019-02-18T05:44:16.976Z,4.28
2019-02-18T05:46:48.228Z,4.28
2019-02-18T05:49:19.446Z,4.27
2019-02-18T05:51:50.731Z,4.24
2019-02-18T05:54:21.918Z,4.23
2019-02-18T05:56:53.192Z,4.21
2019-02-18T05:59:24.525Z,4.19
2019-02-18T06:01:55.731Z,4.19
2019-02-18T06:04:26.952Z,4.17
2019-02-18T06:06:58.136Z,4.14
2019-02-18T06:09:30.360Z,4.13
2019-02-18T06:12:01.766Z,4.11
2019-02-18T06:14:33.004Z,4.04
2019-02-18T06:17:04.203Z,4.04
2019-02-18T06:19:35.359Z,4.08
2019-02-18T06:22:06.551Z,4.07
2019-02-18T06:24:37.853Z,4.06
2019-02-18T06:27:09.054Z,3.99
2019-02-18T06:29:40.245Z,3.97
2019-02-18T06:32:11.476Z,4.03
2019-02-18T06:34:42.801Z,4.01
2019-02-18T06:37:14.115Z,3.98
2019-02-18T06:39:45.313Z,3.97
2019-02-18T06:42:16.559Z,3.96
2019-02-18T06:45:11.917Z,3.94
2019-02-18T06:47:42.818Z,3.92
2019-02-18T06:50:14.033Z,3.91
2019-02-18T06:52:45.133Z,3.90
2019-02-18T06:55:16.319Z,3.89
2019-02-18T06:58:04.456Z,3.89
2019-02-18T07:00:47.875Z,3.89
2019-02-18T07:03:44.119Z,3.89
2019-02-18T07:06:30.107Z,3.94
2019-02-18T07:09:13.991Z,3.94
2019-02-18T07:12:06.970Z,3.95
2019-02-18T07:14:38.202Z,3.98
2019-02-18T07:17:10.452Z,4.00
2019-02-18T07:19:41.785Z,4.03
2019-02-18T07:22:13.027Z,4.06
2019-02-18T07:24:45.221Z,4.09
2019-02-18T07:27:16.461Z,4.12
2019-02-18T07:29:47.578Z,4.16
2019-02-18T07:32:18.835Z,4.21
2019-02-18T07:34:49.991Z,4.24
2019-02-18T07:37:21.167Z,4.27
2019-02-18T07:40:01.229Z,4.30
2019-02-18T07:42:25.374Z,4.34
2019-02-18T07:44:56.567Z,4.39
2019-02-18T07:47:27.818Z,4.43
2019-02-18T07:49:59.138Z,4.49
2019-02-18T07:52:30.379Z,4.55
2019-02-18T07:55:01.602Z,4.60
2019-02-18T07:57:32.770Z,4.66
2019-02-18T08:00:04.094Z,4.73
2019-02-18T08:02:36.280Z,4.79
2019-02-18T08:05:07.483Z,4.79
2019-02-18T08:07:38.706Z,4.92
2019-02-18T08:10:12.295Z,4.99
2019-02-18T08:12:43.221Z,5.06
2019-02-18T08:15:14.411Z,5.12
2019-02-18T08:17:45.718Z,5.20
2019-02-18T08:20:16.905Z,5.26
2019-02-18T08:22:48.111Z,5.34
2019-02-18T08:25:19.404Z,5.42
2019-02-18T08:27:50.610Z,5.49
2019-02-18T08:30:21.798Z,5.56
2019-02-18T08:32:53.075Z,5.64
2019-02-18T08:35:24.397Z,5.70
2019-02-18T08:37:55.570Z,5.78
2019-02-18T08:40:26.810Z,5.85
2019-02-18T08:42:58.018Z,5.93
2019-02-18T08:45:29.256Z,6.01
2019-02-18T08:48:00.441Z,6.08
2019-02-18T08:50:31.720Z,6.17
2019-02-18T08:53:02.902Z,6.25
2019-02-18T08:55:34.195Z,6.31
2019-02-18T08:58:05.476Z,6.39
2019-02-18T09:00:36.615Z,6.48
2019-02-18T09:03:07.825Z,6.56
2019-02-18T09:05:39.047Z,6.65
2019-02-18T09:08:10.277Z,6.74
2019-02-18T09:10:42.536Z,6.85
2019-02-18T09:13:14.828Z,6.94
2019-02-18T09:15:46.066Z,7.03
2019-02-18T09:18:17.352Z,7.14
2019-02-18T09:20:48.754Z,7.24
2019-02-18T09:23:36.847Z,7.33
2019-02-18T09:26:08.087Z,7.41
2019-02-18T09:28:39.304Z,7.51
2019-02-18T09:31:10.507Z,7.60
2019-02-18T09:33:42.249Z,7.71
2019-02-18T09:36:13.393Z,7.80
2019-02-18T09:38:44.708Z,7.91
2019-02-18T09:41:15.883Z,8.00
2019-02-18T09:43:47.076Z,8.12
2019-02-18T09:46:18.297Z,8.23
2019-02-18T09:48:50.591Z,8.32
2019-02-18T09:51:21.847Z,8.43
2019-02-18T09:53:53.114Z,8.53
2019-02-18T09:56:24.366Z,8.62
2019-02-18T09:58:55.613Z,8.73
2019-02-18T10:01:26.920Z,8.84
2019-02-18T10:03:58.138Z,8.94
2019-02-18T10:06:29.313Z,9.04
2019-02-18T10:09:00.656Z,9.15
2019-02-18T10:11:33.602Z,9.27
2019-02-18T10:14:04.916Z,9.38
2019-02-18T10:16:36.276Z,9.49
2019-02-18T10:19:07.412Z,9.61
2019-02-18T10:21:38.560Z,9.73
2019-02-18T10:24:09.792Z,9.84
2019-02-18T10:26:40.956Z,9.95
2019-02-18T10:29:12.356Z,10.05
2019-02-18T10:31:43.561Z,10.15
2019-02-18T10:34:14.915Z,10.26
2019-02-18T10:36:46.156Z,10.36
2019-02-18T10:39:17.379Z,10.46
2019-02-18T10:41:48.755Z,10.56
2019-02-18T10:44:19.990Z,10.68
2019-02-18T10:46:51.507Z,10.78
2019-02-18T10:49:22.840Z,10.88
2019-02-18T10:51:54.625Z,10.98
2019-02-18T10:54:26.055Z,11.08
2019-02-18T10:56:57.260Z,11.16
2019-02-18T10:59:28.513Z,11.25
2019-02-18T11:01:59.671Z,11.35
2019-02-18T11:04:31.154Z,11.45
2019-02-18T11:07:02.476Z,11.54
2019-02-18T11:09:33.702Z,11.63
2019-02-18T11:12:05.078Z,11.71
2019-02-18T11:14:36.279Z,11.79
2019-02-18T11:17:07.577Z,11.89
2019-02-18T11:19:38.821Z,11.99
2019-02-18T11:22:10.115Z,12.07
2019-02-18T11:24:41.560Z,12.15
2019-02-18T11:27:12.917Z,12.26
2019-02-18T11:29:44.198Z,12.34
2019-02-18T11:32:15.492Z,12.42
2019-02-18T11:34:46.718Z,12.51
2019-02-18T11:37:17.952Z,12.58
2019-02-18T11:39:49.156Z,12.65
2019-02-18T11:42:20.428Z,12.72
2019-02-18T11:44:51.756Z,12.81
2019-02-18T11:47:22.971Z,12.87
2019-02-18T11:49:55.250Z,12.95
2019-02-18T11:52:26.726Z,13.02
2019-02-18T11:54:57.937Z,13.08
2019-02-18T11:57:31.638Z,13.16
2019-02-18T12:00:02.536Z,13.24
2019-02-18T12:02:34.984Z,13.31
2019-02-18T12:05:06.813Z,13.38
2019-02-18T12:07:38.117Z,13.46
2019-02-18T12:10:09.815Z,13.54
2019-02-18T12:12:41.652Z,13.63
2019-02-18T12:15:13.083Z,13.72
2019-02-18T12:17:44.348Z,13.80
2019-02-18T12:20:15.560Z,13.89
2019-02-18T12:22:47.064Z,13.96
2019-02-18T12:25:18.277Z,14.06
2019-02-18T12:27:49.506Z,14.13
2019-02-18T12:30:20.817Z,14.22
2019-02-18T12:32:52.144Z,14.32
2019-02-18T12:35:30.964Z,14.41
2019-02-18T12:37:56.284Z,14.53
2019-02-18T12:40:27.542Z,14.63
2019-02-18T12:42:58.682Z,14.74
2019-02-18T12:45:30.030Z,14.85
2019-02-18T12:48:01.289Z,14.95
2019-02-18T12:50:32.622Z,15.08
2019-02-18T12:53:04.323Z,15.22
2019-02-18T12:55:35.612Z,15.36
2019-02-18T12:58:07.113Z,15.52
2019-02-18T13:00:38.362Z,15.71
2019-02-18T13:03:09.657Z,15.95
2019-02-18T13:05:40.964Z,16.19
2019-02-18T13:08:12.168Z,16.50
2019-02-18T13:10:43.367Z,16.86
2019-02-18T13:13:14.768Z,17.36
2019-02-18T13:15:46.065Z,17.95
2019-02-18T13:18:17.284Z,18.61
2019-02-18T13:20:48.645Z,19.27
2019-02-18T13:23:19.852Z,19.92
2019-02-18T13:25:51.137Z,20.58
2019-02-18T13:28:22.288Z,21.20
2019-02-18T13:30:53.495Z,21.79
2019-02-18T13:33:24.717Z,22.32
2019-02-18T13:35:56.289Z,22.79
2019-02-18T13:38:27.562Z,23.24
2019-02-18T13:40:58.806Z,23.67
2019-02-18T13:43:30.088Z,24.03
2019-02-18T13:46:01.303Z,24.38
2019-02-18T13:48:32.960Z,24.64
2019-02-18T13:51:04.180Z,24.77
2019-02-18T13:53:35.567Z,24.81
2019-02-18T13:56:07.842Z,24.95
2019-02-18T13:58:39.139Z,25.15
2019-02-18T14:01:11.919Z,25.38
2019-02-18T14:03:43.126Z,25.66
2019-02-18T14:06:14.361Z,25.96
2019-02-18T14:08:45.779Z,26.31
2019-02-18T14:11:16.998Z,26.62
2019-02-18T14:13:48.673Z,26.89
2019-02-18T14:16:19.810Z,27.14
2019-02-18T14:18:51.179Z,27.39
2019-02-18T14:21:22.427Z,27.63
2019-02-18T14:23:53.610Z,27.81
2019-02-18T14:26:25.431Z,27.94
2019-02-18T14:28:56.636Z,28.10
2019-02-18T14:31:27.984Z,28.24
2019-02-18T14:33:59.180Z,28.36
2019-02-18T14:36:30.424Z,28.43
2019-02-18T14:39:02.223Z,28.51
2019-02-18T14:41:34.156Z,28.58
2019-02-18T14:44:05.591Z,28.63
2019-02-18T14:46:36.780Z,28.58
2019-02-18T14:49:08.014Z,28.53
2019-02-18T14:51:39.694Z,28.28
2019-02-18T14:54:10.922Z,27.91
2019-02-18T14:56:42.511Z,27.60
2019-02-18T14:59:13.732Z,27.29
2019-02-18T15:01:45.161Z,27.09
2019-02-18T15:04:16.880Z,26.93
2019-02-18T15:06:48.190Z,26.81
2019-02-18T15:09:19.471Z,26.66
2019-02-18T15:11:50.692Z,26.49
2019-02-18T15:14:21.978Z,26.32
2019-02-18T15:16:57.765Z,26.06
2019-02-18T15:19:30.240Z,25.68
2019-02-18T15:22:01.540Z,25.28
2019-02-18T15:24:32.896Z,24.93
2019-02-18T15:27:04.325Z,24.60
2019-02-18T15:29:36.025Z,24.27
2019-02-18T15:32:07.500Z,23.99
2019-02-18T15:34:38.847Z,23.81
2019-02-18T15:37:10.214Z,23.65
2019-02-18T15:39:41.528Z,23.53
2019-02-18T15:42:13.165Z,23.38
2019-02-18T15:44:44.404Z,23.16
2019-02-18T15:47:15.784Z,22.88
2019-02-18T15:49:47.130Z,22.58
2019-02-18T15:52:18.459Z,22.26
2019-02-18T15:54:49.927Z,21.92
2019-02-18T15:57:21.122Z,21.57
2019-02-18T15:59:52.344Z,21.23
2019-02-18T16:02:23.610Z,20.89
2019-02-18T16:04:54.809Z,20.56
2019-02-18T16:07:26.569Z,20.26
2019-02-18T16:09:57.886Z,19.97
2019-02-18T16:12:30.112Z,19.67
2019-02-18T16:15:01.328Z,19.37
2019-02-18T16:17:32.547Z,19.12
2019-02-18T16:20:04.498Z,18.86
2019-02-18T16:22:35.766Z,18.61
2019-02-18T16:25:09.574Z,18.38
2019-02-18T16:27:40.934Z,18.14
2019-02-18T16:30:13.724Z,17.90
2019-02-18T16:32:45.440Z,17.69
2019-02-18T16:35:16.683Z,17.49
2019-02-18T16:37:48.040Z,17.30
2019-02-18T16:40:19.424Z,17.10
2019-02-18T16:42:58.993Z,16.92
2019-02-18T16:45:25.428Z,16.74
2019-02-18T16:47:56.810Z,16.57
2019-02-18T16:50:28.029Z,16.41
2019-02-18T16:52:59.493Z,16.26
2019-02-18T16:55:30.835Z,16.08
2019-02-18T16:58:02.098Z,15.93
2019-02-18T17:00:34.110Z,15.78
2019-02-18T17:03:05.376Z,15.64
2019-02-18T17:05:36.586Z,15.50
2019-02-18T17:08:07.883Z,15.37
2019-02-18T17:10:39.115Z,15.22
2019-02-18T17:13:10.307Z,15.09
2019-02-18T17:15:41.579Z,14.96
2019-02-18T17:18:12.865Z,14.84
2019-02-18T17:20:45.069Z,14.71
2019-02-18T17:23:16.586Z,14.61
2019-02-18T17:25:47.980Z,14.51
2019-02-18T17:28:19.305Z,14.41
2019-02-18T17:30:50.703Z,14.30
2019-02-18T17:33:21.994Z,14.20
2019-02-18T17:35:53.498Z,14.09
2019-02-18T17:38:25.817Z,13.99
2019-02-18T17:40:57.190Z,13.88
2019-02-18T17:43:28.472Z,13.76
2019-02-18T17:45:59.851Z,13.65
2019-02-18T17:48:31.474Z,13.52
2019-02-18T17:51:02.809Z,13.42
2019-02-18T17:53:34.059Z,13.32
2019-02-18T17:56:05.390Z,13.24
2019-02-18T17:58:36.943Z,13.14
2019-02-18T18:01:08.721Z,13.04
2019-02-18T18:03:40.066Z,12.97
2019-02-18T18:06:11.422Z,12.89
2019-02-18T18:08:42.866Z,12.83
2019-02-18T18:11:14.197Z,12.75
2019-02-18T18:13:46.913Z,12.71
2019-02-18T18:16:18.180Z,12.66
2019-02-18T18:18:49.554Z,12.61
2019-02-18T18:21:20.927Z,12.56
2019-02-18T18:23:52.251Z,12.51
2019-02-18T18:26:23.865Z,12.45
2019-02-18T18:28:55.100Z,12.38
2019-02-18T18:31:26.374Z,12.32
2019-02-18T18:33:57.609Z,12.24
2019-02-18T18:36:28.830Z,12.17
2019-02-18T18:39:00.087Z,12.10
2019-02-18T18:41:31.787Z,12.05
2019-02-18T18:44:03.140Z,11.99
2019-02-18T18:46:34.450Z,11.91
2019-02-18T18:49:05.737Z,11.86
2019-02-18T18:51:37.369Z,11.79
2019-02-18T18:54:08.603Z,11.73
2019-02-18T18:56:39.895Z,11.67
2019-02-18T18:59:11.387Z,11.61
2019-02-18T19:01:42.641Z,11.56
2019-02-18T19:04:14.247Z,11.50
2019-02-18T19:06:45.565Z,11.45
2019-02-18T19:09:16.789Z,11.41
2019-02-18T19:11:48.123Z,11.36
2019-02-18T19:14:19.350Z,11.31
2019-02-18T19:16:50.876Z,11.26
2019-02-18T19:19:22.047Z,11.19
2019-02-18T19:21:53.344Z,11.17
2019-02-18T19:24:24.560Z,11.12
2019-02-18T19:26:55.762Z,11.06
2019-02-18T19:29:27.233Z,11.01
2019-02-18T19:31:58.574Z,10.94
2019-02-18T19:34:29.800Z,10.89
2019-02-18T19:37:01.173Z,10.84
2019-02-18T19:39:32.532Z,10.79
2019-02-18T19:42:03.885Z,10.75
2019-02-18T19:44:35.132Z,10.70
2019-02-18T19:47:06.408Z,10.65
2019-02-18T19:49:37.574Z,10.60
2019-02-18T19:52:09.972Z,10.55
2019-02-18T19:54:41.281Z,10.53
2019-02-18T19:57:14.104Z,10.48
2019-02-18T19:59:45.353Z,10.46
2019-02-18T20:02:16.591Z,10.42
2019-02-18T20:04:47.772Z,10.39
2019-02-18T20:07:19.065Z,10.36
2019-02-18T20:09:50.305Z,10.31
2019-02-18T20:12:22.454Z,10.28
2019-02-18T20:14:54.070Z,10.23
2019-02-18T20:17:25.368Z,10.17
2019-02-18T20:19:56.905Z,10.13
2019-02-18T20:22:28.088Z,10.09
2019-02-18T20:24:59.434Z,10.04
2019-02-18T20:27:30.768Z,10.00
2019-02-18T20:30:02.214Z,9.95
2019-02-18T20:32:34.958Z,9.91
2019-02-18T20:35:06.507Z,9.87
2019-02-18T20:37:37.684Z,9.82
2019-02-18T20:40:09.032Z,9.76
2019-02-18T20:42:40.724Z,9.71
2019-02-18T20:45:12.706Z,9.67
2019-02-18T20:47:44.095Z,9.61
2019-02-18T20:50:15.437Z,9.58
2019-02-18T20:52:48.283Z,9.55
2019-02-18T20:55:21.009Z,9.50
2019-02-18T20:57:52.205Z,9.47
2019-02-18T21:00:23.462Z,9.43
2019-02-18T21:02:55.014Z,9.40
2019-02-18T21:05:26.336Z,9.38
2019-02-18T21:07:58.148Z,9.36
2019-02-18T21:10:29.571Z,9.32
2019-02-18T21:13:00.875Z,9.29
2019-02-18T21:15:32.204Z,9.27
2019-02-18T21:18:03.837Z,9.23
2019-02-18T21:20:35.897Z,9.20
2019-02-18T21:23:07.440Z,9.17
2019-02-18T21:25:38.966Z,9.14
2019-02-18T21:28:10.488Z,9.12
2019-02-18T21:30:42.726Z,9.11
2019-02-18T21:33:14.481Z,9.07
2019-02-18T21:35:45.743Z,9.03
2019-02-18T21:38:16.953Z,9.01
2019-02-18T21:40:48.264Z,8.97
2019-02-18T21:43:19.605Z,8.96
2019-02-18T21:45:51.115Z,8.95
2019-02-18T21:48:22.469Z,8.92
2019-02-18T21:50:53.719Z,8.92
2019-02-18T21:53:25.037Z,8.89
2019-02-18T21:55:56.235Z,8.88
2019-02-18T21:58:28.775Z,8.86
2019-02-18T22:01:00.060Z,8.84
2019-02-18T22:03:31.206Z,8.81
2019-02-18T22:06:02.543Z,8.78
2019-02-18T22:08:33.846Z,8.75
2019-02-18T22:11:05.425Z,8.73
2019-02-18T22:13:36.733Z,8.69
2019-02-18T22:16:08.041Z,8.65
2019-02-18T22:18:39.337Z,8.60
2019-02-18T22:21:13.425Z,8.57
2019-02-18T22:23:45.798Z,8.54
2019-02-18T22:26:17.083Z,8.53
2019-02-18T22:28:48.290Z,8.47
2019-02-18T22:31:19.544Z,8.45
2019-02-18T22:33:50.839Z,8.41
2019-02-18T22:36:22.077Z,8.38
2019-02-18T22:38:53.247Z,8.34
2019-02-18T22:41:25.408Z,8.31
2019-02-18T22:43:56.642Z,8.27
2019-02-18T22:46:27.945Z,8.22
2019-02-18T22:48:59.259Z,8.17
2019-02-18T22:51:30.806Z,8.13
2019-02-18T22:54:02.124Z,8.09
2019-02-18T22:56:33.368Z,8.05
2019-02-18T22:59:04.749Z,7.99
2019-02-18T23:01:36.035Z,7.95
2019-02-18T23:04:07.559Z,7.92
2019-02-18T23:06:38.795Z,7.87
2019-02-18T23:09:12.538Z,7.82
2019-02-18T23:11:43.791Z,7.79
2019-02-18T23:14:14.960Z,7.77
2019-02-18T23:16:46.587Z,7.74
2019-02-18T23:19:17.912Z,7.72
2019-02-18T23:21:50.454Z,7.71
2019-02-18T23:24:21.678Z,7.69
2019-02-18T23:26:52.931Z,7.66
2019-02-18T23:29:24.149Z,7.62
2019-02-18T23:31:55.358Z,7.59
2019-02-18T23:34:27.548Z,7.56
2019-02-18T23:36:58.718Z,7.56
2019-02-18T23:39:29.925Z,7.53
2019-02-18T23:42:01.374Z,7.54
2019-02-18T23:44:32.587Z,7.51
2019-02-18T23:47:03.783Z,7.50
2019-02-18T23:49:35.128Z,7.47
2019-02-18T23:52:06.431Z,7.47
2019-02-18T23:54:37.824Z,7.44
2019-02-18T23:57:08.946Z,7.43
2019-02-18T23:59:40.127Z,7.42
